Flughafen Hannover-Langenhagen

Aus VATSIM Germany
Dies ist die bestätigte sowie die neueste Version dieser Seite.
Wechseln zu:Navigation, Suche
UnderCon icon.svg.pngDieser Artikel ist noch im Aufbau. Der Artikel kann daher unvollständig sein oder Fehler enthalten!


Hannover Airport
ICAO / IATA EDDV / HAJ
Koordinaten N52°27′40″  E009°41′6″
Höhe 56 m / 183 ft
Wetter EDDV 190520Z 17006KT 9999 FEW020 BKN033 11/09 Q1018 NOSIG
Pisten
Platzfrequenzen
Nur für Flugsimulationszwecke!



Informationen für Piloten und Lotsen
Pilotenbriefing

Standard Operating Procedures (SOP)

Letters of Agreement (LoAs)

Airport Charts